Time;durP1;ratioP1;P1;durP2;ratioP2;P2;SDS_P1;SDS_P2;PMS_P1;PMS_P2;Temp;Humidity;BMP_temperature;BMP_pressure;BME280_temperature;BME280_humidity;BME280_pressure;Samples;Min_cycle;Max_cycle;Signal;HPM_P1;HPM_P2
2022/06/11 07:56:56;;;;;;;;;;;;;;;25.65;93.27;98745.56;5962620;23;19958;31
2022/06/11 07:59:23;;;;;;;;;;;;;;;25.50;98.02;98747.56;4838956;29;19957;-69
2022/06/11 08:01:51;;;;;;;;;;;;;;;25.59;91.89;98747.50;4842914;29;19957;-71
2022/06/11 08:04:18;;;;;;;;;;;;;;;25.71;96.53;98752.97;4842770;29;19954;-72
2022/06/11 08:06:45;;;;;;;;;;;;;;;25.79;87.86;98757.06;4848039;29;19975;-72
2022/06/11 08:09:12;;;;;;;;;;;;;;;25.58;90.54;98754.53;4851595;29;19953;-71
2022/06/11 08:11:40;;;;;;;;;;;;;;;25.76;93.24;98763.75;4847393;29;19958;-71
2022/06/11 08:14:09;;;;;;;;;;;;;;;25.62;87.72;98763.72;4847498;29;20232;-71
2022/06/11 08:16:36;;;;;;;;;;;;;;;25.55;89.38;98758.34;4845219;29;19961;-71
2022/06/11 08:19:04;;;;;;;;;;;;;;;25.42;89.65;98767.16;4845881;29;20371;-71
2022/06/11 08:21:32;;;;;;;;;;;;;;;25.63;97.99;98765.31;4851350;29;20363;-71
2022/06/11 08:23:59;;;;;;;;;;;;;;;25.82;100.00;98767.50;4846582;29;19962;-71
2022/06/11 08:26:27;;;;;;;;;;;;;;;25.82;94.46;98772.47;4839807;29;20267;-71
2022/06/11 08:28:54;;;;;;;;;;;;;;;25.95;96.52;98768.03;4847063;29;19970;-71
2022/06/11 08:31:22;;;;;;;;;;;;;;;25.81;91.71;98770.88;4843891;29;19954;-71
2022/06/11 08:33:49;;;;;;;;;;;;;;;25.79;89.77;98773.44;4847028;29;19951;-71
2022/06/11 08:36:18;;;;;;;;;;;;;;;25.75;88.14;98767.88;4843082;29;20236;-72
2022/06/11 08:38:45;;;;;;;;;;;;;;;25.71;91.62;98770.16;4823984;29;19955;-71
2022/06/11 08:41:17;;;;;;;;;;;;;;;25.77;93.41;98776.00;4846803;29;19953;-71
2022/06/11 08:44:08;;;;;;;;;;;;;;;25.87;97.84;98772.56;4841521;29;19949;-71
2022/06/11 08:46:37;;;;;;;;;;;;;;;25.69;88.53;98781.31;4844999;29;19973;-70
2022/06/11 08:49:04;;;;;;;;;;;;;;;25.53;89.08;98790.31;4845226;29;19953;-70
2022/06/11 08:51:52;;;;;;;;;;;;;;;25.73;93.89;98773.31;4846155;29;19968;-70
2022/06/11 08:54:22;;;;;;;;;;;;;;;25.99;100.00;98770.75;4842122;29;19955;-70
2022/06/11 08:56:56;;;;;;;;;;;;;;;26.16;95.69;98782.56;4841721;29;20711;-69
2022/06/11 08:59:23;;;;;;;;;;;;;;;26.01;97.85;98779.63;4863741;29;19958;-70
2022/06/11 09:01:53;;;;;;;;;;;;;;;25.97;91.90;98771.22;4862167;29;20235;-70
2022/06/11 09:04:24;;;;;;;;;;;;;;;26.04;98.31;98776.56;4863051;29;19952;-70
2022/06/11 09:07:10;;;;;;;;;;;;;;;25.98;92.91;98775.66;4861155;29;20364;-70
2022/06/11 09:09:38;;;;;;;;;;;;;;;26.05;100.00;98783.88;4860626;29;19957;-70
2022/06/11 09:12:24;;;;;;;;;;;;;;;25.94;94.03;98777.16;4862880;29;20377;-69
2022/06/11 09:15:07;;;;;;;;;;;;;;;26.05;100.00;98772.41;4854204;29;19952;-70
2022/06/11 09:18:03;;;;;;;;;;;;;;;26.01;96.63;98773.91;4864569;29;19954;-70
2022/06/11 09:20:35;;;;;;;;;;;;;;;25.85;97.36;98775.13;4847196;29;19984;-70
2022/06/11 09:23:09;;;;;;;;;;;;;;;25.84;94.58;98775.63;4863872;29;19951;-70
2022/06/11 09:25:57;;;;;;;;;;;;;;;26.13;90.67;98775.72;4868770;29;19973;-70
2022/06/11 09:28:40;;;;;;;;;;;;;;;25.90;99.20;98779.38;4860754;29;19958;-70
2022/06/11 09:31:10;;;;;;;;;;;;;;;25.77;94.07;98773.94;4863338;29;19950;-70
2022/06/11 09:33:40;;;;;;;;;;;;;;;25.97;91.61;98781.88;4864398;29;19986;-69
2022/06/11 09:36:13;;;;;;;;;;;;;;;26.07;93.62;98777.66;4864677;29;19958;-70
2022/06/11 09:38:40;;;;;;;;;;;;;;;26.24;96.13;98773.06;4863938;29;19957;-70
2022/06/11 09:41:07;;;;;;;;;;;;;;;26.01;89.28;98780.44;4864673;29;19947;-70
2022/06/11 09:43:35;;;;;;;;;;;;;;;25.90;92.52;98782.25;4864040;29;19974;-70
2022/06/11 09:46:13;;;;;;;;;;;;;;;25.95;91.83;98781.56;4864281;29;19971;-70
2022/06/11 09:48:48;;;;;;;;;;;;;;;26.06;93.30;98776.09;4863480;29;20211;-70
2022/06/11 09:51:29;;;;;;;;;;;;;;;26.14;92.37;98776.53;4865116;29;19957;-69
2022/06/11 09:53:56;;;;;;;;;;;;;;;25.89;89.89;98778.63;4863008;29;19957;-69
2022/06/11 09:56:23;;;;;;;;;;;;;;;26.11;95.83;98778.31;4852805;29;19950;-70
2022/06/11 09:58:51;;;;;;;;;;;;;;;25.83;88.94;98777.69;4865490;29;19970;-70
2022/06/11 10:01:21;;;;;;;;;;;;;;;26.07;92.30;98784.19;4863795;29;19965;-70
2022/06/11 10:03:54;;;;;;;;;;;;;;;26.06;84.63;98778.94;4873500;29;19955;-70
2022/06/11 10:06:36;;;;;;;;;;;;;;;26.11;81.44;98781.16;4866359;29;19971;-70
2022/06/11 10:09:09;;;;;;;;;;;;;;;26.41;80.71;98770.53;4861861;29;19951;-70
2022/06/11 10:11:39;;;;;;;;;;;;;;;26.25;85.03;98777.53;4865130;29;19956;-70
2022/06/11 10:14:29;;;;;;;;;;;;;;;26.20;91.58;98775.34;4863335;29;20252;-70
2022/06/11 10:17:18;;;;;;;;;;;;;;;26.23;90.95;98776.44;4857968;29;19943;-70
2022/06/11 10:19:49;;;;;;;;;;;;;;;26.32;85.70;98765.66;4852387;29;19956;-70
